sensor_id;sensor_type;location;lat;lon;timestamp;temperature;humidity
1716;DHT22;855;48.824;9.220;2023-06-24T00:01:28;19.10;83.20
1716;DHT22;855;48.824;9.220;2023-06-24T00:03:57;19.20;83.00
1716;DHT22;855;48.824;9.220;2023-06-24T00:06:23;19.20;82.80
1716;DHT22;855;48.824;9.220;2023-06-24T00:08:52;19.30;82.40
1716;DHT22;855;48.824;9.220;2023-06-24T00:11:26;19.30;82.00
1716;DHT22;855;48.824;9.220;2023-06-24T00:13:54;19.20;82.00
1716;DHT22;855;48.824;9.220;2023-06-24T00:16:22;19.10;81.90
1716;DHT22;855;48.824;9.220;2023-06-24T00:18:53;19.00;82.70
1716;DHT22;855;48.824;9.220;2023-06-24T00:21:20;19.00;83.00
1716;DHT22;855;48.824;9.220;2023-06-24T00:23:48;19.00;84.10
1716;DHT22;855;48.824;9.220;2023-06-24T00:26:15;19.00;84.40
1716;DHT22;855;48.824;9.220;2023-06-24T00:28:43;18.90;84.20
1716;DHT22;855;48.824;9.220;2023-06-24T00:31:11;18.70;84.90
1716;DHT22;855;48.824;9.220;2023-06-24T00:33:38;18.50;85.00
1716;DHT22;855;48.824;9.220;2023-06-24T00:36:05;18.50;85.40
1716;DHT22;855;48.824;9.220;2023-06-24T00:38:35;18.50;85.60
1716;DHT22;855;48.824;9.220;2023-06-24T00:41:02;18.60;85.20
1716;DHT22;855;48.824;9.220;2023-06-24T00:43:29;18.60;85.60
1716;DHT22;855;48.824;9.220;2023-06-24T00:45:57;18.70;85.20
1716;DHT22;855;48.824;9.220;2023-06-24T00:48:25;18.60;85.20
1716;DHT22;855;48.824;9.220;2023-06-24T00:50:52;18.40;85.60
1716;DHT22;855;48.824;9.220;2023-06-24T00:53:19;18.40;86.40
1716;DHT22;855;48.824;9.220;2023-06-24T00:55:47;18.40;86.60
1716;DHT22;855;48.824;9.220;2023-06-24T00:58:14;18.40;86.20
1716;DHT22;855;48.824;9.220;2023-06-24T01:00:42;18.30;86.40
1716;DHT22;855;48.824;9.220;2023-06-24T01:03:10;18.30;86.40
1716;DHT22;855;48.824;9.220;2023-06-24T01:05:40;18.30;86.10
1716;DHT22;855;48.824;9.220;2023-06-24T01:08:07;18.20;85.80
1716;DHT22;855;48.824;9.220;2023-06-24T01:10:35;18.10;86.00
1716;DHT22;855;48.824;9.220;2023-06-24T01:13:02;18.10;86.50
1716;DHT22;855;48.824;9.220;2023-06-24T01:15:29;17.90;87.80
1716;DHT22;855;48.824;9.220;2023-06-24T01:18:01;18.00;88.10
1716;DHT22;855;48.824;9.220;2023-06-24T01:20:33;18.10;87.70
1716;DHT22;855;48.824;9.220;2023-06-24T01:26:26;18.10;87.10
1716;DHT22;855;48.824;9.220;2023-06-24T01:29:09;18.10;86.70
1716;DHT22;855;48.824;9.220;2023-06-24T01:31:45;18.00;86.70
1716;DHT22;855;48.824;9.220;2023-06-24T01:34:22;18.10;87.00
1716;DHT22;855;48.824;9.220;2023-06-24T01:36:57;18.10;88.20
1716;DHT22;855;48.824;9.220;2023-06-24T01:39:27;18.10;87.90
1716;DHT22;855;48.824;9.220;2023-06-24T01:42:00;18.20;87.80
1716;DHT22;855;48.824;9.220;2023-06-24T01:44:30;18.30;87.30
1716;DHT22;855;48.824;9.220;2023-06-24T01:46:59;18.30;86.70
1716;DHT22;855;48.824;9.220;2023-06-24T01:49:28;18.30;86.90
1716;DHT22;855;48.824;9.220;2023-06-24T01:51:56;18.30;87.00
1716;DHT22;855;48.824;9.220;2023-06-24T01:54:24;18.40;86.60
1716;DHT22;855;48.824;9.220;2023-06-24T01:56:54;18.40;86.50
1716;DHT22;855;48.824;9.220;2023-06-24T01:59:23;18.40;86.10
1716;DHT22;855;48.824;9.220;2023-06-24T02:01:52;18.40;86.20
1716;DHT22;855;48.824;9.220;2023-06-24T02:04:21;18.40;86.50
1716;DHT22;855;48.824;9.220;2023-06-24T02:06:50;18.20;87.10
1716;DHT22;855;48.824;9.220;2023-06-24T02:09:19;18.20;87.30
1716;DHT22;855;48.824;9.220;2023-06-24T02:11:48;18.20;87.30
1716;DHT22;855;48.824;9.220;2023-06-24T02:14:16;18.20;87.30
1716;DHT22;855;48.824;9.220;2023-06-24T02:16:44;18.00;88.30
1716;DHT22;855;48.824;9.220;2023-06-24T02:19:11;17.90;89.10
1716;DHT22;855;48.824;9.220;2023-06-24T02:21:44;17.80;89.70
1716;DHT22;855;48.824;9.220;2023-06-24T02:24:12;17.80;90.10
1716;DHT22;855;48.824;9.220;2023-06-24T02:26:39;17.80;89.90
1716;DHT22;855;48.824;9.220;2023-06-24T02:29:11;17.80;89.30
1716;DHT22;855;48.824;9.220;2023-06-24T02:31:41;17.80;88.30
1716;DHT22;855;48.824;9.220;2023-06-24T02:34:08;17.80;88.10
1716;DHT22;855;48.824;9.220;2023-06-24T02:36:35;17.70;89.10
1716;DHT22;855;48.824;9.220;2023-06-24T02:39:03;17.70;89.00
1716;DHT22;855;48.824;9.220;2023-06-24T02:41:30;17.70;89.10
1716;DHT22;855;48.824;9.220;2023-06-24T02:43:57;17.70;89.00
1716;DHT22;855;48.824;9.220;2023-06-24T02:46:25;17.70;88.60
1716;DHT22;855;48.824;9.220;2023-06-24T02:48:56;17.70;88.60
1716;DHT22;855;48.824;9.220;2023-06-24T02:51:23;17.70;89.10
1716;DHT22;855;48.824;9.220;2023-06-24T02:56:22;17.80;89.00
1716;DHT22;855;48.824;9.220;2023-06-24T02:58:50;17.80;87.70
1716;DHT22;855;48.824;9.220;2023-06-24T03:01:18;17.70;87.70
1716;DHT22;855;48.824;9.220;2023-06-24T03:03:51;17.40;89.00
1716;DHT22;855;48.824;9.220;2023-06-24T03:06:19;17.40;90.20
1716;DHT22;855;48.824;9.220;2023-06-24T03:08:47;17.40;90.20
1716;DHT22;855;48.824;9.220;2023-06-24T03:11:14;17.50;89.90
1716;DHT22;855;48.824;9.220;2023-06-24T03:13:43;17.50;89.80
1716;DHT22;855;48.824;9.220;2023-06-24T03:16:11;17.60;89.50
1716;DHT22;855;48.824;9.220;2023-06-24T03:18:41;17.60;89.40
1716;DHT22;855;48.824;9.220;2023-06-24T03:21:08;17.60;89.10
1716;DHT22;855;48.824;9.220;2023-06-24T03:23:35;17.60;88.90
1716;DHT22;855;48.824;9.220;2023-06-24T03:26:02;17.60;88.90
1716;DHT22;855;48.824;9.220;2023-06-24T03:28:29;17.70;88.70
1716;DHT22;855;48.824;9.220;2023-06-24T03:30:58;17.70;88.60
1716;DHT22;855;48.824;9.220;2023-06-24T03:35:52;17.80;88.90
1716;DHT22;855;48.824;9.220;2023-06-24T03:38:20;17.70;88.50
1716;DHT22;855;48.824;9.220;2023-06-24T03:40:47;17.70;88.60
1716;DHT22;855;48.824;9.220;2023-06-24T03:43:14;17.60;89.10
1716;DHT22;855;48.824;9.220;2023-06-24T03:45:41;17.60;89.50
1716;DHT22;855;48.824;9.220;2023-06-24T03:48:09;17.60;89.80
1716;DHT22;855;48.824;9.220;2023-06-24T03:50:36;17.50;89.90
1716;DHT22;855;48.824;9.220;2023-06-24T03:53:04;17.60;89.80
1716;DHT22;855;48.824;9.220;2023-06-24T03:55:31;17.60;89.80
1716;DHT22;855;48.824;9.220;2023-06-24T03:57:57;17.70;89.50
1716;DHT22;855;48.824;9.220;2023-06-24T04:00:24;17.70;89.00
1716;DHT22;855;48.824;9.220;2023-06-24T04:02:52;17.70;88.60
1716;DHT22;855;48.824;9.220;2023-06-24T04:05:21;17.70;88.30
1716;DHT22;855;48.824;9.220;2023-06-24T04:07:48;17.70;88.10
1716;DHT22;855;48.824;9.220;2023-06-24T04:10:17;17.80;87.90
1716;DHT22;855;48.824;9.220;2023-06-24T04:12:46;17.90;87.40
1716;DHT22;855;48.824;9.220;2023-06-24T04:15:12;18.00;87.00
1716;DHT22;855;48.824;9.220;2023-06-24T04:17:39;18.10;86.70
1716;DHT22;855;48.824;9.220;2023-06-24T04:20:07;18.10;86.60
1716;DHT22;855;48.824;9.220;2023-06-24T04:22:36;18.20;86.60
1716;DHT22;855;48.824;9.220;2023-06-24T04:28:23;18.40;84.20
1716;DHT22;855;48.824;9.220;2023-06-24T04:33:18;18.80;82.10
1716;DHT22;855;48.824;9.220;2023-06-24T04:35:46;19.40;81.70
1716;DHT22;855;48.824;9.220;2023-06-24T04:38:14;19.40;81.70
1716;DHT22;855;48.824;9.220;2023-06-24T04:40:43;19.80;80.30
1716;DHT22;855;48.824;9.220;2023-06-24T04:43:10;20.30;77.60
1716;DHT22;855;48.824;9.220;2023-06-24T04:45:37;20.70;75.80
1716;DHT22;855;48.824;9.220;2023-06-24T04:48:05;21.10;73.40
1716;DHT22;855;48.824;9.220;2023-06-24T04:50:31;21.50;71.90
1716;DHT22;855;48.824;9.220;2023-06-24T04:52:58;21.80;70.80
1716;DHT22;855;48.824;9.220;2023-06-24T04:55:28;22.10;69.80
1716;DHT22;855;48.824;9.220;2023-06-24T04:57:56;22.30;68.10
1716;DHT22;855;48.824;9.220;2023-06-24T05:00:23;22.50;66.70
1716;DHT22;855;48.824;9.220;2023-06-24T05:02:50;22.50;66.50
1716;DHT22;855;48.824;9.220;2023-06-24T05:05:17;22.60;66.90
1716;DHT22;855;48.824;9.220;2023-06-24T05:07:45;22.70;65.60
1716;DHT22;855;48.824;9.220;2023-06-24T05:10:12;22.90;66.00
1716;DHT22;855;48.824;9.220;2023-06-24T05:12:40;22.80;64.70
1716;DHT22;855;48.824;9.220;2023-06-24T05:15:08;22.80;65.30
1716;DHT22;855;48.824;9.220;2023-06-24T05:17:35;22.80;65.20
1716;DHT22;855;48.824;9.220;2023-06-24T05:20:02;22.70;65.20
1716;DHT22;855;48.824;9.220;2023-06-24T05:22:29;22.70;64.90
1716;DHT22;855;48.824;9.220;2023-06-24T05:24:56;22.80;64.80
1716;DHT22;855;48.824;9.220;2023-06-24T05:27:23;22.90;63.80
1716;DHT22;855;48.824;9.220;2023-06-24T05:29:51;23.00;63.40
1716;DHT22;855;48.824;9.220;2023-06-24T05:32:18;23.10;63.20
1716;DHT22;855;48.824;9.220;2023-06-24T05:34:45;23.10;62.80
1716;DHT22;855;48.824;9.220;2023-06-24T05:37:14;23.10;62.70
1716;DHT22;855;48.824;9.220;2023-06-24T05:39:41;23.10;63.20
1716;DHT22;855;48.824;9.220;2023-06-24T05:42:08;23.40;62.80
1716;DHT22;855;48.824;9.220;2023-06-24T05:44:37;23.50;61.90
1716;DHT22;855;48.824;9.220;2023-06-24T05:47:05;23.60;61.40
1716;DHT22;855;48.824;9.220;2023-06-24T05:49:32;23.60;61.40
1716;DHT22;855;48.824;9.220;2023-06-24T05:51:59;23.70;61.90
1716;DHT22;855;48.824;9.220;2023-06-24T05:54:26;23.80;60.70
1716;DHT22;855;48.824;9.220;2023-06-24T05:56:52;24.00;60.80
1716;DHT22;855;48.824;9.220;2023-06-24T05:59:19;24.10;60.60
1716;DHT22;855;48.824;9.220;2023-06-24T06:01:46;24.30;60.80
1716;DHT22;855;48.824;9.220;2023-06-24T06:04:14;24.60;59.40
1716;DHT22;855;48.824;9.220;2023-06-24T06:06:41;24.70;60.10
1716;DHT22;855;48.824;9.220;2023-06-24T06:09:08;24.80;59.30
1716;DHT22;855;48.824;9.220;2023-06-24T06:11:35;24.70;58.70
1716;DHT22;855;48.824;9.220;2023-06-24T06:14:01;24.80;58.40
1716;DHT22;855;48.824;9.220;2023-06-24T06:16:28;25.00;59.30
1716;DHT22;855;48.824;9.220;2023-06-24T06:18:55;25.20;58.50
1716;DHT22;855;48.824;9.220;2023-06-24T06:21:24;25.30;58.20
1716;DHT22;855;48.824;9.220;2023-06-24T06:23:51;25.40;57.70
1716;DHT22;855;48.824;9.220;2023-06-24T06:26:18;25.20;57.40
1716;DHT22;855;48.824;9.220;2023-06-24T06:28:44;25.30;56.50
1716;DHT22;855;48.824;9.220;2023-06-24T06:31:12;25.20;56.90
1716;DHT22;855;48.824;9.220;2023-06-24T06:33:39;25.30;57.30
1716;DHT22;855;48.824;9.220;2023-06-24T06:36:06;25.30;57.30
1716;DHT22;855;48.824;9.220;2023-06-24T06:38:34;25.50;57.50
1716;DHT22;855;48.824;9.220;2023-06-24T06:41:01;25.50;56.20
1716;DHT22;855;48.824;9.220;2023-06-24T06:43:28;25.60;57.00
1716;DHT22;855;48.824;9.220;2023-06-24T06:45:55;25.70;56.00
1716;DHT22;855;48.824;9.220;2023-06-24T06:48:22;25.90;55.70
1716;DHT22;855;48.824;9.220;2023-06-24T06:50:49;25.90;55.70
1716;DHT22;855;48.824;9.220;2023-06-24T06:53:18;26.00;55.50
1716;DHT22;855;48.824;9.220;2023-06-24T06:55:46;26.00;55.20
1716;DHT22;855;48.824;9.220;2023-06-24T06:58:13;25.90;55.30
1716;DHT22;855;48.824;9.220;2023-06-24T07:00:40;25.80;55.40
1716;DHT22;855;48.824;9.220;2023-06-24T07:03:06;25.60;55.90
1716;DHT22;855;48.824;9.220;2023-06-24T07:05:33;25.60;56.30
1716;DHT22;855;48.824;9.220;2023-06-24T07:08:00;25.70;55.80
1716;DHT22;855;48.824;9.220;2023-06-24T07:10:27;25.90;54.90
1716;DHT22;855;48.824;9.220;2023-06-24T07:12:55;25.90;54.50
1716;DHT22;855;48.824;9.220;2023-06-24T07:15:24;25.70;54.90
1716;DHT22;855;48.824;9.220;2023-06-24T07:17:51;25.60;55.80
1716;DHT22;855;48.824;9.220;2023-06-24T07:20:18;25.80;55.00
1716;DHT22;855;48.824;9.220;2023-06-24T07:22:45;26.20;54.70
1716;DHT22;855;48.824;9.220;2023-06-24T07:25:12;26.30;54.20
1716;DHT22;855;48.824;9.220;2023-06-24T07:27:39;26.40;53.30
1716;DHT22;855;48.824;9.220;2023-06-24T07:30:08;26.30;53.20
1716;DHT22;855;48.824;9.220;2023-06-24T07:32:35;26.30;53.80
1716;DHT22;855;48.824;9.220;2023-06-24T07:35:02;26.50;52.60
1716;DHT22;855;48.824;9.220;2023-06-24T07:37:29;26.30;52.70
1716;DHT22;855;48.824;9.220;2023-06-24T07:39:55;26.50;52.80
1716;DHT22;855;48.824;9.220;2023-06-24T07:42:22;26.50;51.90
1716;DHT22;855;48.824;9.220;2023-06-24T07:44:49;26.70;52.40
1716;DHT22;855;48.824;9.220;2023-06-24T07:47:18;26.80;51.80
1716;DHT22;855;48.824;9.220;2023-06-24T07:49:45;26.80;51.30
1716;DHT22;855;48.824;9.220;2023-06-24T07:52:12;26.60;50.70
1716;DHT22;855;48.824;9.220;2023-06-24T07:54:39;26.60;52.10
1716;DHT22;855;48.824;9.220;2023-06-24T07:57:06;26.40;52.20
1716;DHT22;855;48.824;9.220;2023-06-24T07:59:32;26.70;52.20
1716;DHT22;855;48.824;9.220;2023-06-24T08:01:59;27.10;49.90
1716;DHT22;855;48.824;9.220;2023-06-24T08:04:27;27.50;50.30
1716;DHT22;855;48.824;9.220;2023-06-24T08:06:54;27.70;48.60
1716;DHT22;855;48.824;9.220;2023-06-24T08:09:21;27.90;48.70
1716;DHT22;855;48.824;9.220;2023-06-24T08:11:48;28.10;46.70
1716;DHT22;855;48.824;9.220;2023-06-24T08:14:15;28.20;46.50
1716;DHT22;855;48.824;9.220;2023-06-24T08:16:42;28.00;46.10
1716;DHT22;855;48.824;9.220;2023-06-24T08:19:09;28.10;47.30
1716;DHT22;855;48.824;9.220;2023-06-24T08:21:37;27.90;47.00
1716;DHT22;855;48.824;9.220;2023-06-24T08:24:04;27.80;46.70
1716;DHT22;855;48.824;9.220;2023-06-24T08:26:31;27.60;46.80
1716;DHT22;855;48.824;9.220;2023-06-24T08:28:58;27.80;47.30
1716;DHT22;855;48.824;9.220;2023-06-24T08:31:25;27.80;47.30
1716;DHT22;855;48.824;9.220;2023-06-24T08:33:52;27.80;46.70
1716;DHT22;855;48.824;9.220;2023-06-24T08:36:21;27.60;47.10
1716;DHT22;855;48.824;9.220;2023-06-24T08:38:50;27.50;46.80
1716;DHT22;855;48.824;9.220;2023-06-24T08:41:17;27.50;46.10
1716;DHT22;855;48.824;9.220;2023-06-24T08:43:44;27.50;46.70
1716;DHT22;855;48.824;9.220;2023-06-24T08:46:13;27.70;44.10
1716;DHT22;855;48.824;9.220;2023-06-24T08:48:43;27.90;44.80
1716;DHT22;855;48.824;9.220;2023-06-24T08:51:13;27.60;44.80
1716;DHT22;855;48.824;9.220;2023-06-24T08:53:42;27.50;46.30
1716;DHT22;855;48.824;9.220;2023-06-24T08:56:11;27.80;45.00
1716;DHT22;855;48.824;9.220;2023-06-24T08:58:41;28.00;44.20
1716;DHT22;855;48.824;9.220;2023-06-24T09:01:08;27.80;45.00
1716;DHT22;855;48.824;9.220;2023-06-24T09:03:35;28.00;46.00
1716;DHT22;855;48.824;9.220;2023-06-24T09:06:02;28.10;45.20
1716;DHT22;855;48.824;9.220;2023-06-24T09:08:29;28.40;45.70
1716;DHT22;855;48.824;9.220;2023-06-24T09:10:56;28.70;43.30
1716;DHT22;855;48.824;9.220;2023-06-24T09:13:34;28.70;41.80
1716;DHT22;855;48.824;9.220;2023-06-24T09:16:11;29.00;43.70
1716;DHT22;855;48.824;9.220;2023-06-24T09:18:39;29.00;42.20
1716;DHT22;855;48.824;9.220;2023-06-24T09:21:07;29.00;43.20
1716;DHT22;855;48.824;9.220;2023-06-24T09:23:35;28.90;42.30
1716;DHT22;855;48.824;9.220;2023-06-24T09:26:02;28.80;42.00
1716;DHT22;855;48.824;9.220;2023-06-24T09:28:30;28.60;40.50
1716;DHT22;855;48.824;9.220;2023-06-24T09:31:07;28.40;40.00
1716;DHT22;855;48.824;9.220;2023-06-24T09:33:35;28.40;40.70
1716;DHT22;855;48.824;9.220;2023-06-24T09:36:03;28.30;40.60
1716;DHT22;855;48.824;9.220;2023-06-24T09:38:34;28.30;39.10
1716;DHT22;855;48.824;9.220;2023-06-24T09:41:02;28.20;38.60
1716;DHT22;855;48.824;9.220;2023-06-24T09:43:33;28.20;39.70
1716;DHT22;855;48.824;9.220;2023-06-24T09:46:01;28.30;40.60
1716;DHT22;855;48.824;9.220;2023-06-24T09:48:28;27.90;41.60
1716;DHT22;855;48.824;9.220;2023-06-24T09:50:56;28.10;42.50
1716;DHT22;855;48.824;9.220;2023-06-24T09:53:26;28.40;41.60
1716;DHT22;855;48.824;9.220;2023-06-24T09:55:53;28.60;41.80
1716;DHT22;855;48.824;9.220;2023-06-24T09:58:20;28.70;41.80
1716;DHT22;855;48.824;9.220;2023-06-24T10:00:49;28.70;40.50
1716;DHT22;855;48.824;9.220;2023-06-24T10:03:17;28.60;40.90
1716;DHT22;855;48.824;9.220;2023-06-24T10:05:44;28.60;40.10
1716;DHT22;855;48.824;9.220;2023-06-24T10:08:13;28.60;41.40
1716;DHT22;855;48.824;9.220;2023-06-24T10:10:40;28.30;40.40
1716;DHT22;855;48.824;9.220;2023-06-24T10:13:08;28.30;40.50
1716;DHT22;855;48.824;9.220;2023-06-24T10:15:35;28.30;39.60
1716;DHT22;855;48.824;9.220;2023-06-24T10:18:06;28.50;41.40
1716;DHT22;855;48.824;9.220;2023-06-24T10:20:53;28.60;39.70
1716;DHT22;855;48.824;9.220;2023-06-24T10:23:20;28.50;39.60
1716;DHT22;855;48.824;9.220;2023-06-24T10:25:47;28.50;39.50
1716;DHT22;855;48.824;9.220;2023-06-24T10:28:14;28.80;39.90
1716;DHT22;855;48.824;9.220;2023-06-24T10:30:54;28.80;37.50
1716;DHT22;855;48.824;9.220;2023-06-24T10:33:23;29.00;37.60
1716;DHT22;855;48.824;9.220;2023-06-24T10:35:50;29.00;37.40
1716;DHT22;855;48.824;9.220;2023-06-24T10:38:18;29.20;38.60
1716;DHT22;855;48.824;9.220;2023-06-24T10:40:45;28.90;34.50
1716;DHT22;855;48.824;9.220;2023-06-24T10:43:28;28.70;35.60
1716;DHT22;855;48.824;9.220;2023-06-24T10:45:56;28.70;37.20
1716;DHT22;855;48.824;9.220;2023-06-24T10:48:25;28.80;37.10
1716;DHT22;855;48.824;9.220;2023-06-24T10:50:52;28.60;38.20
1716;DHT22;855;48.824;9.220;2023-06-24T10:53:19;28.60;37.20
1716;DHT22;855;48.824;9.220;2023-06-24T10:55:46;28.80;37.60
1716;DHT22;855;48.824;9.220;2023-06-24T10:58:14;28.90;37.40
1716;DHT22;855;48.824;9.220;2023-06-24T11:00:41;28.80;38.20
1716;DHT22;855;48.824;9.220;2023-06-24T11:03:10;28.50;39.00
1716;DHT22;855;48.824;9.220;2023-06-24T11:05:40;28.80;37.70
1716;DHT22;855;48.824;9.220;2023-06-24T11:08:07;29.00;38.60
1716;DHT22;855;48.824;9.220;2023-06-24T11:10:42;29.00;38.70
1716;DHT22;855;48.824;9.220;2023-06-24T11:13:09;29.30;39.70
1716;DHT22;855;48.824;9.220;2023-06-24T11:15:38;29.50;38.10
1716;DHT22;855;48.824;9.220;2023-06-24T11:18:05;29.40;38.50
1716;DHT22;855;48.824;9.220;2023-06-24T11:20:33;29.00;38.50
1716;DHT22;855;48.824;9.220;2023-06-24T11:23:06;28.40;39.70
1716;DHT22;855;48.824;9.220;2023-06-24T11:25:39;28.40;39.60
1716;DHT22;855;48.824;9.220;2023-06-24T11:28:13;28.00;40.70
1716;DHT22;855;48.824;9.220;2023-06-24T11:30:40;27.90;40.40
1716;DHT22;855;48.824;9.220;2023-06-24T11:33:07;27.80;40.20
1716;DHT22;855;48.824;9.220;2023-06-24T11:35:33;28.10;40.00
1716;DHT22;855;48.824;9.220;2023-06-24T11:38:03;28.20;40.20
1716;DHT22;855;48.824;9.220;2023-06-24T11:40:31;28.20;39.10
1716;DHT22;855;48.824;9.220;2023-06-24T11:43:01;28.40;38.60
1716;DHT22;855;48.824;9.220;2023-06-24T11:45:28;28.70;38.20
1716;DHT22;855;48.824;9.220;2023-06-24T11:48:02;29.00;39.10
1716;DHT22;855;48.824;9.220;2023-06-24T11:50:30;29.30;39.70
1716;DHT22;855;48.824;9.220;2023-06-24T11:52:57;29.60;37.60
1716;DHT22;855;48.824;9.220;2023-06-24T11:55:26;29.80;37.00
1716;DHT22;855;48.824;9.220;2023-06-24T11:57:56;29.90;38.50
1716;DHT22;855;48.824;9.220;2023-06-24T12:00:25;30.00;36.40
1716;DHT22;855;48.824;9.220;2023-06-24T12:02:56;30.30;37.50
1716;DHT22;855;48.824;9.220;2023-06-24T12:05:24;30.60;37.60
1716;DHT22;855;48.824;9.220;2023-06-24T12:07:57;30.80;34.80
1716;DHT22;855;48.824;9.220;2023-06-24T12:10:26;30.90;36.00
1716;DHT22;855;48.824;9.220;2023-06-24T12:12:54;30.90;35.60
1716;DHT22;855;48.824;9.220;2023-06-24T12:15:21;30.90;36.00
1716;DHT22;855;48.824;9.220;2023-06-24T12:17:48;31.00;34.30
1716;DHT22;855;48.824;9.220;2023-06-24T12:20:15;30.70;35.50
1716;DHT22;855;48.824;9.220;2023-06-24T12:22:44;30.40;34.60
1716;DHT22;855;48.824;9.220;2023-06-24T12:25:11;30.20;35.90
1716;DHT22;855;48.824;9.220;2023-06-24T12:27:39;30.30;36.60
1716;DHT22;855;48.824;9.220;2023-06-24T12:30:07;30.50;36.60
1716;DHT22;855;48.824;9.220;2023-06-24T12:32:34;30.60;36.10
1716;DHT22;855;48.824;9.220;2023-06-24T12:35:02;30.70;37.50
1716;DHT22;855;48.824;9.220;2023-06-24T12:37:30;30.90;35.90
1716;DHT22;855;48.824;9.220;2023-06-24T12:39:58;30.80;35.60
1716;DHT22;855;48.824;9.220;2023-06-24T12:42:25;30.60;35.10
1716;DHT22;855;48.824;9.220;2023-06-24T12:44:54;30.30;35.60
1716;DHT22;855;48.824;9.220;2023-06-24T12:47:21;30.00;35.60
1716;DHT22;855;48.824;9.220;2023-06-24T12:49:48;29.90;35.60
1716;DHT22;855;48.824;9.220;2023-06-24T12:52:15;29.70;36.60
1716;DHT22;855;48.824;9.220;2023-06-24T12:54:42;29.50;36.20
1716;DHT22;855;48.824;9.220;2023-06-24T12:57:11;29.30;36.40
1716;DHT22;855;48.824;9.220;2023-06-24T12:59:40;29.20;36.90
1716;DHT22;855;48.824;9.220;2023-06-24T13:02:08;29.20;36.50
1716;DHT22;855;48.824;9.220;2023-06-24T13:04:35;29.20;36.90
1716;DHT22;855;48.824;9.220;2023-06-24T13:07:02;29.20;36.60
1716;DHT22;855;48.824;9.220;2023-06-24T13:09:30;29.30;37.20
1716;DHT22;855;48.824;9.220;2023-06-24T13:11:57;29.60;36.50
1716;DHT22;855;48.824;9.220;2023-06-24T13:14:24;29.80;36.00
1716;DHT22;855;48.824;9.220;2023-06-24T13:16:53;30.00;35.10
1716;DHT22;855;48.824;9.220;2023-06-24T13:19:22;30.00;35.00
1716;DHT22;855;48.824;9.220;2023-06-24T13:21:48;30.20;33.40
1716;DHT22;855;48.824;9.220;2023-06-24T13:24:15;30.30;34.00
1716;DHT22;855;48.824;9.220;2023-06-24T13:26:42;30.20;33.60
1716;DHT22;855;48.824;9.220;2023-06-24T13:29:10;30.00;33.90
1716;DHT22;855;48.824;9.220;2023-06-24T13:31:37;30.00;33.30
1716;DHT22;855;48.824;9.220;2023-06-24T13:34:04;30.20;31.50
1716;DHT22;855;48.824;9.220;2023-06-24T13:36:33;30.50;35.40
1716;DHT22;855;48.824;9.220;2023-06-24T13:39:02;29.90;34.80
1716;DHT22;855;48.824;9.220;2023-06-24T13:41:29;29.80;35.10
1716;DHT22;855;48.824;9.220;2023-06-24T13:43:58;29.90;34.30
1716;DHT22;855;48.824;9.220;2023-06-24T13:46:25;30.20;34.60
1716;DHT22;855;48.824;9.220;2023-06-24T13:48:52;30.50;34.10
1716;DHT22;855;48.824;9.220;2023-06-24T13:51:19;30.80;33.30
1716;DHT22;855;48.824;9.220;2023-06-24T13:53:48;30.50;33.80
1716;DHT22;855;48.824;9.220;2023-06-24T13:56:15;30.30;33.90
1716;DHT22;855;48.824;9.220;2023-06-24T13:58:42;30.30;34.10
1716;DHT22;855;48.824;9.220;2023-06-24T14:01:09;30.50;35.30
1716;DHT22;855;48.824;9.220;2023-06-24T14:03:36;30.70;35.30
1716;DHT22;855;48.824;9.220;2023-06-24T14:06:03;31.00;33.50
1716;DHT22;855;48.824;9.220;2023-06-24T14:08:31;31.00;33.40
1716;DHT22;855;48.824;9.220;2023-06-24T14:11:00;30.90;33.40
1716;DHT22;855;48.824;9.220;2023-06-24T14:13:28;30.90;33.90
1716;DHT22;855;48.824;9.220;2023-06-24T14:15:55;30.60;33.50
1716;DHT22;855;48.824;9.220;2023-06-24T14:18:22;30.50;33.80
1716;DHT22;855;48.824;9.220;2023-06-24T14:20:49;30.60;33.60
1716;DHT22;855;48.824;9.220;2023-06-24T14:23:16;30.50;33.80
1716;DHT22;855;48.824;9.220;2023-06-24T14:25:43;30.50;34.30
1716;DHT22;855;48.824;9.220;2023-06-24T14:28:11;30.20;33.80
1716;DHT22;855;48.824;9.220;2023-06-24T14:30:38;30.10;34.40
1716;DHT22;855;48.824;9.220;2023-06-24T14:33:05;30.40;34.90
1716;DHT22;855;48.824;9.220;2023-06-24T14:35:32;30.20;34.60
1716;DHT22;855;48.824;9.220;2023-06-24T14:37:59;30.30;34.40
1716;DHT22;855;48.824;9.220;2023-06-24T14:40:25;30.30;34.10
1716;DHT22;855;48.824;9.220;2023-06-24T14:42:52;30.30;34.40
1716;DHT22;855;48.824;9.220;2023-06-24T14:45:20;30.40;33.90
1716;DHT22;855;48.824;9.220;2023-06-24T14:47:47;30.30;34.10
1716;DHT22;855;48.824;9.220;2023-06-24T14:50:14;30.10;33.80
1716;DHT22;855;48.824;9.220;2023-06-24T14:52:41;29.90;34.30
1716;DHT22;855;48.824;9.220;2023-06-24T14:55:08;29.80;34.30
1716;DHT22;855;48.824;9.220;2023-06-24T14:57:35;29.70;34.80
1716;DHT22;855;48.824;9.220;2023-06-24T15:00:05;29.80;34.40
1716;DHT22;855;48.824;9.220;2023-06-24T15:02:33;29.60;35.50
1716;DHT22;855;48.824;9.220;2023-06-24T15:05:00;29.70;35.90
1716;DHT22;855;48.824;9.220;2023-06-24T15:07:27;29.90;35.50
1716;DHT22;855;48.824;9.220;2023-06-24T15:09:54;30.10;35.30
1716;DHT22;855;48.824;9.220;2023-06-24T15:12:21;30.40;34.60
1716;DHT22;855;48.824;9.220;2023-06-24T15:14:48;30.40;34.60
1716;DHT22;855;48.824;9.220;2023-06-24T15:17:15;30.50;34.90
1716;DHT22;855;48.824;9.220;2023-06-24T15:19:46;30.60;34.50
1716;DHT22;855;48.824;9.220;2023-06-24T15:22:13;30.50;34.80
1716;DHT22;855;48.824;9.220;2023-06-24T15:24:40;30.50;35.00
1716;DHT22;855;48.824;9.220;2023-06-24T15:27:06;30.40;34.10
1716;DHT22;855;48.824;9.220;2023-06-24T15:29:34;30.50;33.80
1716;DHT22;855;48.824;9.220;2023-06-24T15:32:01;30.80;34.60
1716;DHT22;855;48.824;9.220;2023-06-24T15:34:28;30.70;33.50
1716;DHT22;855;48.824;9.220;2023-06-24T15:36:56;30.50;34.10
1716;DHT22;855;48.824;9.220;2023-06-24T15:39:23;30.70;34.30
1716;DHT22;855;48.824;9.220;2023-06-24T15:41:50;30.70;34.30
1716;DHT22;855;48.824;9.220;2023-06-24T15:44:18;30.70;34.50
1716;DHT22;855;48.824;9.220;2023-06-24T15:46:45;30.50;34.30
1716;DHT22;855;48.824;9.220;2023-06-24T15:49:14;30.60;34.00
1716;DHT22;855;48.824;9.220;2023-06-24T15:51:41;30.70;34.60
1716;DHT22;855;48.824;9.220;2023-06-24T15:54:09;30.70;34.40
1716;DHT22;855;48.824;9.220;2023-06-24T15:56:43;30.70;34.10
1716;DHT22;855;48.824;9.220;2023-06-24T15:59:10;30.60;33.90
1716;DHT22;855;48.824;9.220;2023-06-24T16:01:37;30.50;34.60
1716;DHT22;855;48.824;9.220;2023-06-24T16:04:04;30.10;33.10
1716;DHT22;855;48.824;9.220;2023-06-24T16:06:31;29.90;33.60
1716;DHT22;855;48.824;9.220;2023-06-24T16:09:00;29.80;34.10
1716;DHT22;855;48.824;9.220;2023-06-24T16:11:29;29.80;34.10
1716;DHT22;855;48.824;9.220;2023-06-24T16:13:56;29.90;33.90
1716;DHT22;855;48.824;9.220;2023-06-24T16:16:23;29.80;34.80
1716;DHT22;855;48.824;9.220;2023-06-24T16:18:49;29.90;35.00
1716;DHT22;855;48.824;9.220;2023-06-24T16:21:16;29.90;34.50
1716;DHT22;855;48.824;9.220;2023-06-24T16:23:43;29.80;34.50
1716;DHT22;855;48.824;9.220;2023-06-24T16:26:10;29.70;35.10
1716;DHT22;855;48.824;9.220;2023-06-24T16:28:38;29.70;35.30
1716;DHT22;855;48.824;9.220;2023-06-24T16:31:05;29.70;34.50
1716;DHT22;855;48.824;9.220;2023-06-24T16:33:32;29.80;34.60
1716;DHT22;855;48.824;9.220;2023-06-24T16:36:00;29.90;35.00